createdAt,value
2022-12-31T05:00:36.609Z,15.59
2022-12-31T05:01:36.680Z,15.50
2022-12-31T05:02:36.710Z,15.54
2022-12-31T05:03:36.526Z,15.68
2022-12-31T05:04:36.506Z,15.57
2022-12-31T05:05:36.507Z,15.67
2022-12-31T05:06:36.497Z,15.75
2022-12-31T05:07:36.481Z,15.90
2022-12-31T05:08:36.507Z,15.89
2022-12-31T05:09:36.463Z,15.90
2022-12-31T05:10:36.453Z,15.87
2022-12-31T05:11:41.457Z,15.97
2022-12-31T05:12:36.449Z,15.94
2022-12-31T05:13:36.413Z,15.93
2022-12-31T05:14:36.404Z,15.84
2022-12-31T05:15:36.410Z,15.90
2022-12-31T05:16:36.467Z,15.97
2022-12-31T05:17:36.370Z,16.00
2022-12-31T05:18:36.399Z,15.96
2022-12-31T05:19:36.338Z,15.94
2022-12-31T05:20:36.351Z,15.97
2022-12-31T05:21:36.319Z,16.00
2022-12-31T05:22:41.325Z,16.00
2022-12-31T05:23:36.320Z,16.00
2022-12-31T05:24:36.322Z,15.93
2022-12-31T05:25:36.285Z,16.01
2022-12-31T05:26:36.287Z,16.05
2022-12-31T05:27:36.262Z,15.96
2022-12-31T05:28:36.239Z,15.94
2022-12-31T05:29:36.240Z,15.97
2022-12-31T05:30:36.278Z,16.02
2022-12-31T05:31:36.216Z,16.08
2022-12-31T05:32:36.213Z,16.04
2022-12-31T05:33:41.209Z,16.07
2022-12-31T05:34:36.190Z,16.02
2022-12-31T05:35:36.180Z,16.00
2022-12-31T05:36:37.137Z,15.94
2022-12-31T05:37:36.152Z,16.00
2022-12-31T05:38:36.118Z,15.92
2022-12-31T05:39:36.121Z,15.87
2022-12-31T05:40:36.114Z,15.82
2022-12-31T05:41:36.120Z,15.93
2022-12-31T05:42:36.069Z,16.01
2022-12-31T05:43:36.076Z,15.97
2022-12-31T05:44:41.077Z,16.00
2022-12-31T05:45:36.107Z,15.96
2022-12-31T05:46:36.029Z,15.96
2022-12-31T05:47:36.070Z,15.97
2022-12-31T05:48:36.064Z,16.11
2022-12-31T05:49:36.009Z,16.15
2022-12-31T05:50:35.993Z,16.11
2022-12-31T05:51:36.977Z,16.09
2022-12-31T05:52:36.860Z,16.09
2022-12-31T05:53:35.949Z,16.01
2022-12-31T05:54:35.973Z,16.09
2022-12-31T05:55:40.958Z,16.09
2022-12-31T05:56:35.928Z,16.01
2022-12-31T05:57:35.938Z,16.08
2022-12-31T05:58:35.901Z,16.07
2022-12-31T05:59:35.909Z,16.02
2022-12-31T06:00:35.883Z,16.02
2022-12-31T06:01:35.908Z,16.08
2022-12-31T06:02:35.859Z,16.08
2022-12-31T06:03:36.915Z,16.05
2022-12-31T06:04:35.843Z,16.11
2022-12-31T06:05:35.902Z,16.04
2022-12-31T06:06:40.837Z,16.09
2022-12-31T06:07:35.807Z,16.12
2022-12-31T06:08:35.791Z,16.09
2022-12-31T06:09:35.781Z,15.97
2022-12-31T06:10:35.795Z,16.00
2022-12-31T06:11:35.773Z,15.94
2022-12-31T06:12:35.749Z,15.97
2022-12-31T06:13:35.748Z,16.05
2022-12-31T06:14:38.520Z,16.09
2022-12-31T06:15:36.801Z,16.14
2022-12-31T06:16:35.702Z,16.12
2022-12-31T06:17:40.701Z,16.08
2022-12-31T06:18:35.714Z,16.05
2022-12-31T06:19:35.682Z,16.11
2022-12-31T06:20:35.685Z,16.07
2022-12-31T06:21:35.654Z,15.96
2022-12-31T06:22:35.740Z,15.94
2022-12-31T06:23:35.610Z,15.90
2022-12-31T06:24:35.621Z,15.87
2022-12-31T06:25:35.632Z,15.87
2022-12-31T06:26:35.573Z,15.87
2022-12-31T06:27:35.568Z,15.87
2022-12-31T06:28:40.571Z,15.83
2022-12-31T06:29:35.567Z,15.82
2022-12-31T06:30:35.585Z,15.84
2022-12-31T06:31:35.560Z,15.87
2022-12-31T06:32:35.542Z,15.75
2022-12-31T06:33:35.501Z,15.74
2022-12-31T06:34:35.594Z,15.78
2022-12-31T06:35:35.548Z,15.71
2022-12-31T06:36:35.968Z,15.68
2022-12-31T06:37:35.456Z,15.67
2022-12-31T06:38:35.473Z,15.67
2022-12-31T06:39:40.486Z,15.67
2022-12-31T06:40:35.467Z,15.67
2022-12-31T06:41:35.417Z,15.62
2022-12-31T06:42:35.415Z,15.69
2022-12-31T06:43:35.479Z,15.71
2022-12-31T06:44:35.398Z,15.56
2022-12-31T06:45:35.375Z,15.69
2022-12-31T06:46:35.457Z,15.64
2022-12-31T06:47:35.355Z,15.59
2022-12-31T06:48:35.416Z,15.64
2022-12-31T06:49:35.316Z,15.59
2022-12-31T06:50:40.358Z,15.59
2022-12-31T06:51:35.341Z,15.67
2022-12-31T06:52:35.296Z,15.68
2022-12-31T06:53:35.271Z,15.64
2022-12-31T06:54:35.261Z,15.54
2022-12-31T06:55:35.255Z,15.60
2022-12-31T06:56:35.239Z,15.50
2022-12-31T06:57:35.227Z,15.53
2022-12-31T06:58:35.223Z,15.47
2022-12-31T06:59:35.294Z,15.44
2022-12-31T07:00:35.201Z,15.35
2022-12-31T07:01:40.318Z,15.43
2022-12-31T07:02:35.338Z,15.31
2022-12-31T07:03:35.165Z,15.43
2022-12-31T07:04:35.177Z,15.34
2022-12-31T07:05:35.177Z,15.34
2022-12-31T07:06:35.124Z,15.31
2022-12-31T07:07:35.186Z,15.31
2022-12-31T07:08:35.128Z,15.27
2022-12-31T07:09:35.125Z,15.31
2022-12-31T07:10:35.120Z,15.23
2022-12-31T07:11:35.065Z,15.34
2022-12-31T07:12:40.089Z,15.27
2022-12-31T07:13:35.085Z,15.28
2022-12-31T07:14:35.033Z,15.31
2022-12-31T07:15:35.052Z,15.25
2022-12-31T07:16:35.018Z,15.17
2022-12-31T07:17:35.000Z,15.19
2022-12-31T07:18:35.002Z,15.19
2022-12-31T07:19:35.019Z,15.28
2022-12-31T07:20:35.092Z,15.27
2022-12-31T07:21:35.032Z,15.19
2022-12-31T07:22:34.950Z,15.17
2022-12-31T07:23:40.170Z,15.16
2022-12-31T07:24:34.937Z,15.20
2022-12-31T07:25:34.913Z,15.17
2022-12-31T07:26:34.925Z,15.21
2022-12-31T07:27:34.884Z,15.16
2022-12-31T07:28:34.898Z,15.25
2022-12-31T07:29:34.910Z,15.13
2022-12-31T07:30:34.864Z,15.13
2022-12-31T07:31:34.885Z,15.17
2022-12-31T07:32:34.846Z,15.17
2022-12-31T07:33:34.827Z,15.11
2022-12-31T07:34:39.903Z,15.16
2022-12-31T07:35:35.549Z,15.11
2022-12-31T07:36:34.793Z,15.20
2022-12-31T07:37:34.768Z,15.23
2022-12-31T07:38:34.805Z,15.19
2022-12-31T07:39:34.777Z,15.19
2022-12-31T07:40:34.730Z,15.31
2022-12-31T07:41:34.757Z,15.25
2022-12-31T07:42:34.733Z,15.17
2022-12-31T07:43:34.694Z,15.14
2022-12-31T07:44:34.747Z,15.13
2022-12-31T07:45:39.743Z,15.14
2022-12-31T07:46:34.744Z,15.17
2022-12-31T07:47:34.664Z,15.14
2022-12-31T07:48:34.793Z,15.14
2022-12-31T07:49:34.656Z,15.09
2022-12-31T07:50:34.633Z,15.11
2022-12-31T07:51:34.627Z,15.14
2022-12-31T07:52:34.623Z,15.13
2022-12-31T07:53:34.595Z,15.16
2022-12-31T07:54:34.609Z,15.09
2022-12-31T07:55:34.603Z,15.14
2022-12-31T07:56:39.651Z,15.14
2022-12-31T07:57:34.566Z,15.13
2022-12-31T07:58:34.532Z,15.13
2022-12-31T07:59:34.813Z,15.14
2022-12-31T08:00:34.573Z,15.14
2022-12-31T08:01:34.848Z,15.13
2022-12-31T08:02:34.591Z,15.10
2022-12-31T08:03:34.517Z,15.17
2022-12-31T08:04:34.500Z,15.11
2022-12-31T08:05:34.595Z,15.14
2022-12-31T08:06:34.556Z,15.19
2022-12-31T08:07:39.463Z,15.23
2022-12-31T08:08:34.450Z,15.20
2022-12-31T08:09:34.415Z,15.20
2022-12-31T08:10:34.415Z,15.09
2022-12-31T08:11:34.433Z,15.14
2022-12-31T08:12:34.485Z,15.14
2022-12-31T08:13:34.394Z,15.21
2022-12-31T08:14:34.386Z,15.14
2022-12-31T08:15:34.336Z,15.17
2022-12-31T08:16:34.380Z,15.19
2022-12-31T08:17:34.502Z,15.16
2022-12-31T08:18:39.330Z,15.29
2022-12-31T08:19:34.327Z,15.28
2022-12-31T08:20:34.297Z,15.35
2022-12-31T08:21:35.116Z,15.31
2022-12-31T08:22:34.275Z,15.44
2022-12-31T08:23:34.246Z,15.41
2022-12-31T08:24:34.229Z,15.36
2022-12-31T08:25:34.221Z,15.32
2022-12-31T08:26:34.218Z,15.34
2022-12-31T08:27:34.225Z,15.36
2022-12-31T08:28:34.185Z,15.36
2022-12-31T08:29:39.200Z,15.39
2022-12-31T08:30:34.174Z,15.38
2022-12-31T08:31:34.186Z,15.34
2022-12-31T08:32:34.154Z,15.41
2022-12-31T08:33:34.127Z,15.35
2022-12-31T08:34:34.149Z,15.35
2022-12-31T08:35:34.121Z,15.35
2022-12-31T08:36:34.094Z,15.38
2022-12-31T08:37:34.675Z,15.32
2022-12-31T08:38:34.103Z,15.31
2022-12-31T08:39:34.055Z,15.39
2022-12-31T08:40:39.068Z,15.38
2022-12-31T08:41:39.042Z,15.29
2022-12-31T08:42:35.556Z,15.31
2022-12-31T08:43:34.103Z,15.35
2022-12-31T08:44:34.022Z,15.32
2022-12-31T08:45:34.058Z,15.38
2022-12-31T08:46:34.041Z,15.29
2022-12-31T08:47:38.270Z,15.29
2022-12-31T08:48:34.043Z,15.34
2022-12-31T08:49:33.947Z,15.35
2022-12-31T08:50:33.942Z,15.34
2022-12-31T08:51:38.999Z,15.46
2022-12-31T08:52:33.930Z,15.38
2022-12-31T08:53:33.964Z,15.47
2022-12-31T08:54:33.894Z,15.44
2022-12-31T08:55:33.875Z,15.50
2022-12-31T08:56:33.872Z,15.51
2022-12-31T08:57:33.937Z,15.54
2022-12-31T08:58:33.855Z,15.50
2022-12-31T08:59:33.866Z,15.50
2022-12-31T09:00:33.869Z,15.65
2022-12-31T09:01:33.972Z,15.60
2022-12-31T09:02:43.207Z,15.59
2022-12-31T09:03:34.790Z,15.60
2022-12-31T09:04:33.899Z,15.59
2022-12-31T09:05:33.765Z,15.64
2022-12-31T09:06:33.757Z,15.56
2022-12-31T09:07:33.774Z,15.57
2022-12-31T09:08:33.745Z,15.62
2022-12-31T09:09:33.729Z,15.57
2022-12-31T09:10:33.843Z,15.68
2022-12-31T09:11:33.719Z,15.60
2022-12-31T09:12:33.775Z,15.67
2022-12-31T09:13:38.865Z,15.68
2022-12-31T09:14:33.678Z,15.71
2022-12-31T09:15:33.710Z,15.78
2022-12-31T09:16:33.658Z,15.89
2022-12-31T09:17:33.639Z,15.90
2022-12-31T09:18:33.620Z,15.96
2022-12-31T09:19:33.620Z,15.93
2022-12-31T09:20:42.985Z,15.93
2022-12-31T09:21:34.658Z,15.94
2022-12-31T09:22:33.726Z,16.02
2022-12-31T09:23:33.561Z,15.97
2022-12-31T09:24:38.697Z,15.93
2022-12-31T09:25:33.639Z,15.86
2022-12-31T09:26:33.565Z,15.89
2022-12-31T09:27:33.529Z,15.90
2022-12-31T09:28:33.503Z,15.87
2022-12-31T09:29:33.505Z,15.96
2022-12-31T09:30:33.489Z,15.93
2022-12-31T09:31:33.513Z,15.97
2022-12-31T09:32:33.731Z,16.01
2022-12-31T09:33:33.456Z,16.02
2022-12-31T09:34:33.434Z,16.05
2022-12-31T09:35:38.459Z,16.12
2022-12-31T09:36:33.414Z,16.24
2022-12-31T09:37:33.412Z,16.21
2022-12-31T09:38:33.389Z,16.34
2022-12-31T09:39:33.477Z,16.50
2022-12-31T09:40:33.382Z,16.56
2022-12-31T09:41:33.368Z,16.63
2022-12-31T09:42:33.460Z,16.61
2022-12-31T09:43:33.335Z,16.60
2022-12-31T09:44:33.342Z,16.70
2022-12-31T09:45:33.509Z,16.57
2022-12-31T09:46:38.343Z,16.53
2022-12-31T09:47:33.301Z,16.49
2022-12-31T09:48:33.429Z,16.50
2022-12-31T09:49:33.274Z,16.49
2022-12-31T09:50:33.323Z,16.48
2022-12-31T09:51:33.545Z,16.50
2022-12-31T09:52:33.455Z,16.50
2022-12-31T09:53:33.284Z,16.52
2022-12-31T09:54:33.209Z,16.53
2022-12-31T09:55:33.430Z,16.48
2022-12-31T09:56:33.224Z,16.34
2022-12-31T09:57:38.305Z,16.39
2022-12-31T09:58:33.199Z,16.46
2022-12-31T09:59:33.322Z,16.33
2022-12-31T10:00:33.149Z,16.38
2022-12-31T10:01:33.372Z,16.34
2022-12-31T10:02:33.588Z,16.48
2022-12-31T10:03:33.124Z,16.39
2022-12-31T10:04:33.122Z,16.34
2022-12-31T10:05:33.088Z,16.41
2022-12-31T10:06:33.090Z,16.35
2022-12-31T10:07:33.110Z,16.27
2022-12-31T10:08:38.091Z,16.33
2022-12-31T10:09:33.165Z,16.28
2022-12-31T10:10:33.054Z,16.23
2022-12-31T10:11:33.139Z,16.34
2022-12-31T10:12:33.017Z,16.30
2022-12-31T10:13:33.233Z,16.31
2022-12-31T10:14:33.289Z,16.49
2022-12-31T10:15:33.041Z,16.75
2022-12-31T10:16:33.083Z,16.71
2022-12-31T10:17:33.190Z,16.79
2022-12-31T10:18:33.010Z,16.88
2022-12-31T10:19:38.012Z,17.00
2022-12-31T10:20:33.000Z,17.23
2022-12-31T10:21:32.973Z,17.28
2022-12-31T10:22:32.985Z,17.44
2022-12-31T10:23:33.127Z,17.59
2022-12-31T10:24:32.906Z,17.87
2022-12-31T10:25:38.669Z,17.99
2022-12-31T10:26:33.942Z,18.33
2022-12-31T10:27:33.032Z,18.55
2022-12-31T10:28:32.963Z,18.75
2022-12-31T10:29:32.920Z,18.80
2022-12-31T10:30:37.862Z,18.70
2022-12-31T10:31:32.946Z,18.65
2022-12-31T10:32:32.954Z,18.91
2022-12-31T10:33:32.767Z,18.82
2022-12-31T10:34:32.961Z,18.99
2022-12-31T10:35:32.781Z,19.02
2022-12-31T10:36:32.802Z,19.00
2022-12-31T10:37:32.805Z,18.42
2022-12-31T10:38:32.754Z,18.45
2022-12-31T10:39:32.721Z,18.60
2022-12-31T10:40:32.809Z,18.60
2022-12-31T10:41:37.702Z,18.88
2022-12-31T10:42:32.681Z,19.16
2022-12-31T10:43:33.704Z,19.10
2022-12-31T10:44:32.712Z,19.11
2022-12-31T10:45:32.657Z,19.18
2022-12-31T10:46:32.676Z,19.06
2022-12-31T10:47:32.622Z,19.04
2022-12-31T10:48:32.764Z,18.82
2022-12-31T10:49:32.762Z,18.66
2022-12-31T10:50:32.958Z,18.63
2022-12-31T10:51:32.660Z,18.58
2022-12-31T10:52:41.733Z,18.27
2022-12-31T10:53:32.562Z,18.05
2022-12-31T10:54:32.545Z,18.10
2022-12-31T10:55:32.512Z,17.89
2022-12-31T10:56:32.568Z,17.97
2022-12-31T10:57:32.500Z,18.14
2022-12-31T10:58:32.507Z,18.27
2022-12-31T10:59:32.495Z,18.37
2022-12-31T11:00:32.488Z,18.44
2022-12-31T11:01:32.527Z,18.66
2022-12-31T11:02:32.654Z,18.82
2022-12-31T11:03:37.491Z,18.92
2022-12-31T11:04:32.427Z,18.95
2022-12-31T11:05:32.400Z,19.08
2022-12-31T11:06:32.408Z,19.19
2022-12-31T11:07:32.387Z,18.87
2022-12-31T11:08:32.369Z,18.95
2022-12-31T11:09:34.663Z,18.80
2022-12-31T11:10:32.361Z,18.73
2022-12-31T11:11:32.333Z,18.78
2022-12-31T11:12:32.339Z,18.82
2022-12-31T11:13:32.336Z,18.91
2022-12-31T11:14:37.367Z,19.00
2022-12-31T11:15:32.360Z,18.91
2022-12-31T11:16:32.317Z,18.87
2022-12-31T11:17:32.268Z,18.90
2022-12-31T11:18:32.280Z,19.02
2022-12-31T11:19:32.243Z,19.14
2022-12-31T11:20:32.249Z,19.06
2022-12-31T11:21:34.254Z,19.33
2022-12-31T11:22:33.247Z,19.54
2022-12-31T11:23:32.201Z,19.59
2022-12-31T11:24:32.189Z,19.63
2022-12-31T11:25:37.206Z,19.58
2022-12-31T11:26:32.170Z,19.36
2022-12-31T11:27:32.154Z,19.11
2022-12-31T11:28:32.144Z,18.92
2022-12-31T11:29:32.137Z,18.87
2022-12-31T11:30:32.203Z,18.75
2022-12-31T11:31:32.150Z,18.67
2022-12-31T11:32:32.124Z,18.57
2022-12-31T11:33:32.113Z,18.55
2022-12-31T11:34:32.072Z,18.44
2022-12-31T11:35:32.099Z,18.48
2022-12-31T11:36:37.094Z,18.42
2022-12-31T11:37:32.130Z,18.44
2022-12-31T11:38:32.042Z,18.48
2022-12-31T11:39:32.038Z,18.54
2022-12-31T11:40:32.030Z,18.55
2022-12-31T11:41:31.995Z,18.60
2022-12-31T11:42:32.003Z,18.58
2022-12-31T11:43:31.972Z,18.50
2022-12-31T11:44:31.973Z,18.52
2022-12-31T11:45:31.957Z,18.63
2022-12-31T11:46:31.999Z,18.51
2022-12-31T11:47:44.739Z,18.70
2022-12-31T11:48:33.167Z,18.51
2022-12-31T11:49:31.916Z,18.52
2022-12-31T11:50:31.903Z,18.63
2022-12-31T11:51:31.888Z,18.52
2022-12-31T11:52:32.865Z,18.55
2022-12-31T11:53:31.858Z,18.55
2022-12-31T11:54:31.870Z,18.36
2022-12-31T11:55:31.865Z,18.44
2022-12-31T11:56:31.849Z,18.35
2022-12-31T11:57:31.814Z,18.44
2022-12-31T11:58:36.827Z,18.48
2022-12-31T11:59:31.848Z,18.45
2022-12-31T12:00:31.788Z,18.54
2022-12-31T12:01:31.934Z,18.58
2022-12-31T12:02:31.777Z,18.41
2022-12-31T12:03:31.805Z,18.41
2022-12-31T12:04:31.732Z,18.41
2022-12-31T12:05:31.756Z,18.44
2022-12-31T12:06:31.709Z,18.60
2022-12-31T12:07:31.725Z,18.57
2022-12-31T12:08:31.689Z,18.47
2022-12-31T12:09:36.718Z,18.60
2022-12-31T12:10:36.034Z,18.69
2022-12-31T12:11:32.663Z,18.66
2022-12-31T12:12:31.645Z,18.78
2022-12-31T12:13:31.631Z,18.81
2022-12-31T12:14:31.627Z,18.78
2022-12-31T12:15:31.636Z,18.84
2022-12-31T12:16:31.661Z,18.84
2022-12-31T12:17:31.591Z,18.99
2022-12-31T12:18:31.577Z,19.04
2022-12-31T12:19:31.563Z,18.92
2022-12-31T12:20:36.917Z,18.92
2022-12-31T12:21:31.555Z,18.91
2022-12-31T12:22:31.531Z,18.98
2022-12-31T12:23:31.532Z,19.00
2022-12-31T12:24:32.506Z,19.00
2022-12-31T12:25:31.515Z,19.07
2022-12-31T12:26:31.504Z,19.00
2022-12-31T12:27:31.516Z,18.99
2022-12-31T12:28:31.479Z,19.02
2022-12-31T12:29:31.453Z,18.94
2022-12-31T12:30:31.443Z,19.04
2022-12-31T12:31:36.493Z,18.98
2022-12-31T12:32:31.412Z,18.99
2022-12-31T12:33:31.404Z,18.85
2022-12-31T12:34:31.420Z,18.82
2022-12-31T12:35:31.381Z,18.88
2022-12-31T12:36:31.418Z,18.85
2022-12-31T12:37:31.368Z,18.94
2022-12-31T12:38:31.347Z,18.95
2022-12-31T12:39:31.336Z,19.11
2022-12-31T12:40:34.202Z,19.10
2022-12-31T12:41:31.357Z,19.18
2022-12-31T12:42:36.335Z,19.11
2022-12-31T12:43:31.308Z,19.11
2022-12-31T12:44:31.280Z,19.06
2022-12-31T12:45:31.272Z,19.21
2022-12-31T12:46:31.347Z,19.32
2022-12-31T12:47:31.459Z,19.25
2022-12-31T12:48:31.240Z,19.40
2022-12-31T12:49:31.226Z,19.46
2022-12-31T12:50:31.229Z,19.40
2022-12-31T12:51:31.251Z,19.40
2022-12-31T12:52:31.205Z,19.44
2022-12-31T12:53:36.208Z,19.44
2022-12-31T12:54:31.234Z,19.44
2022-12-31T12:55:31.222Z,19.41
2022-12-31T12:56:31.248Z,19.36
2022-12-31T12:57:31.163Z,19.39
2022-12-31T12:58:31.142Z,19.37
2022-12-31T12:59:31.119Z,19.36
2022-12-31T13:00:31.154Z,19.25
2022-12-31T13:01:31.282Z,19.21
2022-12-31T13:02:31.278Z,19.19
2022-12-31T13:03:31.073Z,19.19
2022-12-31T13:04:36.204Z,19.10
2022-12-31T13:05:31.042Z,19.14
2022-12-31T13:06:31.043Z,19.19
2022-12-31T13:07:31.079Z,19.10
2022-12-31T13:08:31.012Z,19.19
2022-12-31T13:09:31.017Z,19.19
2022-12-31T13:10:30.986Z,19.25
2022-12-31T13:11:30.987Z,19.14
2022-12-31T13:12:48.856Z,19.31
2022-12-31T13:13:32.025Z,19.22
2022-12-31T13:14:30.947Z,19.22
2022-12-31T13:15:35.967Z,19.23
2022-12-31T13:16:31.046Z,19.23
2022-12-31T13:17:30.912Z,19.19
2022-12-31T13:18:30.900Z,19.29
2022-12-31T13:19:30.894Z,19.32
2022-12-31T13:20:30.896Z,19.32
2022-12-31T13:21:30.863Z,19.48
2022-12-31T13:22:30.857Z,19.37
2022-12-31T13:23:34.902Z,19.37
2022-12-31T13:24:31.829Z,19.19
2022-12-31T13:25:30.827Z,19.06
2022-12-31T13:26:35.833Z,19.11
2022-12-31T13:27:30.820Z,19.08
2022-12-31T13:28:30.782Z,19.00
2022-12-31T13:29:30.841Z,19.04
2022-12-31T13:30:30.769Z,18.98
2022-12-31T13:31:30.820Z,18.98
2022-12-31T13:32:30.765Z,18.99
2022-12-31T13:33:30.729Z,18.95
2022-12-31T13:34:30.714Z,18.88
2022-12-31T13:35:30.712Z,19.00
2022-12-31T13:36:30.712Z,18.94
2022-12-31T13:37:35.822Z,18.95
2022-12-31T13:38:30.677Z,18.94
2022-12-31T13:39:30.701Z,18.78
2022-12-31T13:40:30.671Z,18.84
2022-12-31T13:41:30.644Z,18.90
2022-12-31T13:42:30.682Z,18.85
2022-12-31T13:43:30.624Z,18.82
2022-12-31T13:44:30.597Z,18.82
2022-12-31T13:45:30.669Z,18.76
2022-12-31T13:46:30.580Z,18.82
2022-12-31T13:47:30.613Z,18.80
2022-12-31T13:48:35.578Z,18.75
2022-12-31T13:49:30.557Z,18.75
2022-12-31T13:50:30.534Z,18.73
2022-12-31T13:51:30.531Z,18.73
2022-12-31T13:52:30.523Z,18.60
2022-12-31T13:53:30.502Z,18.69
2022-12-31T13:54:30.498Z,18.62
2022-12-31T13:55:30.476Z,18.60
2022-12-31T13:56:30.509Z,18.62
2022-12-31T13:57:30.477Z,18.54
2022-12-31T13:58:30.447Z,18.54
2022-12-31T13:59:35.454Z,18.58
2022-12-31T14:00:30.519Z,18.52
2022-12-31T14:01:33.901Z,18.51
2022-12-31T14:02:30.608Z,18.47
2022-12-31T14:03:30.401Z,18.41
2022-12-31T14:04:30.427Z,18.41
2022-12-31T14:05:30.357Z,18.45
2022-12-31T14:06:30.379Z,18.52
2022-12-31T14:07:36.414Z,18.47
2022-12-31T14:08:31.325Z,18.42
2022-12-31T14:09:30.316Z,18.42
2022-12-31T14:10:35.330Z,18.39
2022-12-31T14:11:30.297Z,18.44
2022-12-31T14:12:30.418Z,18.44
2022-12-31T14:13:34.554Z,18.36
2022-12-31T14:14:30.255Z,18.33
2022-12-31T14:15:30.249Z,18.39
2022-12-31T14:16:30.254Z,18.35
2022-12-31T14:17:30.282Z,18.37
2022-12-31T14:18:30.232Z,18.36
2022-12-31T14:19:33.307Z,18.30
2022-12-31T14:20:31.195Z,18.36
2022-12-31T14:21:35.209Z,18.44
2022-12-31T14:22:30.252Z,18.41
2022-12-31T14:23:30.177Z,18.41
2022-12-31T14:24:30.159Z,18.37
2022-12-31T14:25:30.138Z,18.36
2022-12-31T14:26:30.122Z,18.26
2022-12-31T14:27:30.166Z,18.26
2022-12-31T14:28:30.128Z,18.15
2022-12-31T14:29:30.106Z,18.23
2022-12-31T14:30:30.074Z,18.17
2022-12-31T14:31:30.156Z,18.17
2022-12-31T14:32:35.105Z,18.07
2022-12-31T14:33:30.053Z,18.17
2022-12-31T14:34:30.043Z,18.07
2022-12-31T14:35:30.024Z,18.05
2022-12-31T14:36:30.002Z,18.10
2022-12-31T14:37:30.005Z,18.02
2022-12-31T14:38:30.035Z,18.00
2022-12-31T14:39:29.972Z,18.05
2022-12-31T14:40:29.960Z,18.11
2022-12-31T14:41:29.951Z,18.05
2022-12-31T14:42:29.968Z,17.97
2022-12-31T14:43:34.963Z,17.93
2022-12-31T14:44:29.910Z,17.99
2022-12-31T14:45:30.012Z,18.02
2022-12-31T14:46:30.354Z,18.02
2022-12-31T14:47:29.891Z,17.89
2022-12-31T14:48:29.907Z,17.99
2022-12-31T14:49:29.859Z,17.97
2022-12-31T14:50:29.855Z,17.87
2022-12-31T14:51:29.850Z,17.96
2022-12-31T14:52:29.823Z,17.89
2022-12-31T14:53:29.824Z,17.78
2022-12-31T14:54:34.849Z,17.89
2022-12-31T14:55:29.801Z,17.79
2022-12-31T14:56:29.824Z,17.84
2022-12-31T14:57:29.773Z,17.89
2022-12-31T14:58:29.761Z,17.84
2022-12-31T14:59:29.768Z,17.82
2022-12-31T15:00:29.742Z,17.78
2022-12-31T15:01:29.817Z,17.72
2022-12-31T15:02:29.922Z,17.77
2022-12-31T15:03:29.700Z,17.79
2022-12-31T15:04:29.730Z,17.77
2022-12-31T15:05:34.695Z,17.78
2022-12-31T15:06:29.664Z,17.72
2022-12-31T15:07:29.655Z,17.71
2022-12-31T15:08:29.640Z,17.70
2022-12-31T15:09:29.646Z,17.62
2022-12-31T15:10:30.636Z,17.55
2022-12-31T15:11:29.638Z,17.59
2022-12-31T15:12:29.620Z,17.55
2022-12-31T15:13:29.594Z,17.56
2022-12-31T15:14:35.286Z,17.62
2022-12-31T15:15:30.565Z,17.54
2022-12-31T15:16:34.668Z,17.52
2022-12-31T15:17:29.535Z,17.48
2022-12-31T15:18:29.535Z,17.48
2022-12-31T15:19:29.525Z,17.49
2022-12-31T15:20:29.522Z,17.49
2022-12-31T15:21:29.496Z,17.44
2022-12-31T15:22:29.483Z,17.43
2022-12-31T15:23:29.480Z,17.37
2022-12-31T15:24:29.471Z,17.36
2022-12-31T15:25:32.627Z,17.31
2022-12-31T15:26:30.436Z,17.41
2022-12-31T15:27:34.454Z,17.26
2022-12-31T15:28:29.411Z,17.37
2022-12-31T15:29:29.424Z,17.33
2022-12-31T15:30:29.392Z,17.36
2022-12-31T15:31:29.458Z,17.38
2022-12-31T15:32:29.400Z,17.22
2022-12-31T15:33:29.389Z,17.23
2022-12-31T15:34:29.377Z,17.16
2022-12-31T15:35:29.337Z,17.22
2022-12-31T15:36:29.397Z,17.19
2022-12-31T15:37:29.324Z,17.14
2022-12-31T15:38:34.324Z,17.18
2022-12-31T15:39:29.302Z,17.08
2022-12-31T15:40:29.294Z,17.00
2022-12-31T15:41:29.264Z,16.97
2022-12-31T15:42:39.205Z,16.96
2022-12-31T15:43:30.248Z,17.00
2022-12-31T15:44:29.248Z,16.89
2022-12-31T15:45:29.222Z,16.91
2022-12-31T15:46:29.264Z,16.88
2022-12-31T15:47:29.203Z,16.83
2022-12-31T15:48:29.244Z,16.88
2022-12-31T15:49:34.213Z,16.82
2022-12-31T15:50:29.173Z,16.83
2022-12-31T15:51:29.173Z,16.81
2022-12-31T15:52:29.208Z,16.86
2022-12-31T15:53:29.133Z,16.93
2022-12-31T15:54:29.127Z,16.89
2022-12-31T15:55:29.141Z,16.85
2022-12-31T15:56:29.156Z,16.83
2022-12-31T15:57:29.129Z,16.83
2022-12-31T15:58:29.087Z,16.85
2022-12-31T15:59:29.110Z,16.82
2022-12-31T16:00:34.092Z,16.81
2022-12-31T16:01:29.236Z,16.78
2022-12-31T16:02:29.237Z,16.82
2022-12-31T16:03:29.132Z,16.75
2022-12-31T16:04:29.004Z,16.73
2022-12-31T16:05:29.009Z,16.71
2022-12-31T16:06:28.987Z,16.68
2022-12-31T16:07:29.029Z,16.64
2022-12-31T16:08:28.991Z,16.64
2022-12-31T16:09:28.947Z,16.57
2022-12-31T16:10:28.950Z,16.68
2022-12-31T16:11:33.948Z,16.67
2022-12-31T16:12:33.193Z,16.66
2022-12-31T16:13:29.919Z,16.56
2022-12-31T16:14:28.894Z,16.61
2022-12-31T16:15:28.951Z,16.61
2022-12-31T16:16:28.908Z,16.53
2022-12-31T16:17:28.861Z,16.60
2022-12-31T16:18:28.858Z,16.61
2022-12-31T16:19:28.837Z,16.58
2022-12-31T16:20:28.842Z,16.67
2022-12-31T16:21:28.822Z,16.58
2022-12-31T16:22:33.829Z,16.56
2022-12-31T16:23:28.799Z,16.56
2022-12-31T16:24:28.800Z,16.49
2022-12-31T16:25:31.637Z,16.56
2022-12-31T16:26:28.755Z,16.52
2022-12-31T16:27:28.749Z,16.52
2022-12-31T16:28:28.735Z,16.50
2022-12-31T16:29:28.739Z,16.57
2022-12-31T16:30:28.711Z,16.63
2022-12-31T16:31:28.812Z,16.56
2022-12-31T16:32:28.687Z,16.56
2022-12-31T16:33:33.701Z,16.53
2022-12-31T16:34:28.670Z,16.38
2022-12-31T16:35:28.737Z,16.39
2022-12-31T16:36:28.702Z,16.38
2022-12-31T16:37:28.658Z,16.43
2022-12-31T16:38:28.646Z,16.35
2022-12-31T16:39:28.620Z,16.42
2022-12-31T16:40:28.701Z,16.34
2022-12-31T16:41:28.648Z,16.39
2022-12-31T16:42:28.588Z,16.42
2022-12-31T16:43:28.569Z,16.38
2022-12-31T16:44:33.578Z,16.43
2022-12-31T16:45:28.683Z,16.46
2022-12-31T16:46:28.648Z,16.28
2022-12-31T16:47:28.543Z,16.50
2022-12-31T16:48:28.518Z,16.33
2022-12-31T16:49:28.500Z,16.39
2022-12-31T16:50:29.480Z,16.48
2022-12-31T16:51:28.530Z,16.48
2022-12-31T16:52:28.468Z,16.43
2022-12-31T16:53:28.447Z,16.39
2022-12-31T16:54:28.474Z,16.39
2022-12-31T16:55:33.464Z,16.43
2022-12-31T16:56:28.442Z,16.46
2022-12-31T16:57:28.409Z,16.42
2022-12-31T16:58:28.400Z,16.34
2022-12-31T16:59:33.505Z,16.42
2022-12-31T17:00:29.378Z,16.45
2022-12-31T17:01:28.514Z,16.49
2022-12-31T17:02:28.512Z,16.49
2022-12-31T17:03:28.444Z,16.50
2022-12-31T17:04:28.338Z,16.46
2022-12-31T17:05:28.327Z,16.34
2022-12-31T17:06:33.351Z,16.49
2022-12-31T17:07:28.297Z,16.48
2022-12-31T17:08:28.311Z,16.49
2022-12-31T17:09:28.459Z,16.42
2022-12-31T17:10:28.257Z,16.48
2022-12-31T17:11:28.325Z,16.53
2022-12-31T17:12:28.287Z,16.52
2022-12-31T17:13:29.828Z,16.53
2022-12-31T17:14:28.284Z,16.49
2022-12-31T17:15:28.203Z,16.48
2022-12-31T17:16:28.274Z,16.50
2022-12-31T17:17:33.208Z,16.57
2022-12-31T17:18:28.201Z,16.61
2022-12-31T17:19:28.165Z,16.68
2022-12-31T17:20:28.142Z,16.71
2022-12-31T17:21:28.216Z,16.68
2022-12-31T17:22:35.829Z,16.60
2022-12-31T17:23:29.181Z,16.68
2022-12-31T17:24:28.105Z,16.58
2022-12-31T17:25:28.093Z,16.58
2022-12-31T17:26:28.086Z,16.50
2022-12-31T17:27:28.082Z,16.57
2022-12-31T17:28:33.115Z,16.50
2022-12-31T17:29:28.096Z,16.48
2022-12-31T17:30:28.074Z,16.52
2022-12-31T17:31:28.109Z,16.52
2022-12-31T17:32:28.100Z,16.53
2022-12-31T17:33:28.062Z,16.53
2022-12-31T17:34:27.993Z,16.56
2022-12-31T17:35:27.994Z,16.43
2022-12-31T17:36:27.980Z,16.49
2022-12-31T17:37:27.970Z,16.48
2022-12-31T17:38:27.982Z,16.48
2022-12-31T17:39:32.955Z,16.35
2022-12-31T17:40:50.335Z,16.39
2022-12-31T17:41:28.928Z,16.42
2022-12-31T17:42:27.968Z,16.50
2022-12-31T17:43:34.727Z,16.38
2022-12-31T17:44:28.872Z,16.45
2022-12-31T17:45:27.869Z,16.46
2022-12-31T17:46:27.919Z,16.34
2022-12-31T17:47:27.844Z,16.38
2022-12-31T17:48:27.828Z,16.39
2022-12-31T17:49:27.813Z,16.31
2022-12-31T17:50:32.826Z,16.25
2022-12-31T17:51:27.791Z,16.31
2022-12-31T17:52:27.788Z,16.27